createdAt,value
2019-06-08T00:02:26.666Z,15.71
2019-06-08T00:04:57.480Z,15.93
2019-06-08T00:07:27.679Z,16.04
2019-06-08T00:09:57.858Z,16.05
2019-06-08T00:12:29.100Z,15.95
2019-06-08T00:14:59.351Z,15.86
2019-06-08T00:17:38.187Z,15.74
2019-06-08T00:20:01.821Z,15.58
2019-06-08T00:22:32.184Z,15.87
2019-06-08T00:25:03.688Z,15.90
2019-06-08T00:27:33.935Z,15.94
2019-06-08T00:30:04.272Z,15.82
2019-06-08T00:32:34.524Z,15.68
2019-06-08T00:35:05.004Z,15.82
2019-06-08T00:37:35.140Z,15.77
2019-06-08T00:40:05.860Z,15.88
2019-06-08T00:42:36.043Z,15.94
2019-06-08T00:45:07.408Z,15.92
2019-06-08T00:47:47.733Z,15.93
2019-06-08T00:50:10.819Z,15.87
2019-06-08T00:52:41.062Z,15.81
2019-06-08T00:55:12.856Z,15.66
2019-06-08T00:57:43.112Z,15.68
2019-06-08T01:00:13.490Z,15.69
2019-06-08T01:02:43.736Z,15.41
2019-06-08T01:05:13.988Z,15.41
2019-06-08T01:07:45.400Z,15.61
2019-06-08T01:10:16.853Z,15.59
2019-06-08T01:12:47.018Z,15.63
2019-06-08T01:15:24.796Z,15.67
2019-06-08T01:18:02.508Z,15.67
2019-06-08T01:20:27.539Z,15.63
2019-06-08T01:22:57.808Z,15.63
2019-06-08T01:25:30.034Z,15.59
2019-06-08T01:28:00.256Z,15.37
2019-06-08T01:30:31.561Z,15.35
2019-06-08T01:33:01.710Z,15.30
2019-06-08T01:35:31.904Z,15.36
2019-06-08T01:38:02.077Z,15.07
2019-06-08T01:40:32.303Z,15.28
2019-06-08T01:43:02.567Z,15.30
2019-06-08T01:45:34.865Z,15.14
2019-06-08T01:48:19.565Z,15.09
2019-06-08T01:50:39.884Z,15.16
2019-06-08T01:53:10.118Z,15.16
2019-06-08T01:55:40.303Z,15.12
2019-06-08T01:58:10.543Z,15.10
2019-06-08T02:00:41.844Z,15.03
2019-06-08T02:03:12.087Z,15.04
2019-06-08T02:05:42.361Z,14.91
2019-06-08T02:08:12.561Z,14.83
2019-06-08T02:10:43.121Z,14.85
2019-06-08T02:13:13.359Z,14.91
2019-06-08T02:15:43.662Z,14.94
2019-06-08T02:18:13.792Z,14.83
2019-06-08T02:20:44.073Z,14.81
2019-06-08T02:23:14.260Z,14.81
2019-06-08T02:25:44.739Z,14.88
2019-06-08T02:28:14.903Z,14.85
2019-06-08T02:30:45.109Z,14.74
2019-06-08T02:33:15.337Z,14.82
2019-06-08T02:35:45.529Z,14.69
2019-06-08T02:38:15.711Z,14.40
2019-06-08T02:40:45.978Z,14.55
2019-06-08T02:43:16.140Z,14.62
2019-06-08T02:45:46.414Z,14.65
2019-06-08T02:48:16.603Z,14.70
2019-06-08T02:50:54.501Z,14.66
2019-06-08T02:53:26.514Z,14.70
2019-06-08T02:55:57.116Z,14.64
2019-06-08T02:58:29.218Z,14.70
2019-06-08T03:00:59.702Z,14.70
2019-06-08T03:03:33.742Z,14.59
2019-06-08T03:06:04.368Z,14.64
2019-06-08T03:08:39.227Z,14.64
2019-06-08T03:11:10.056Z,14.49
2019-06-08T03:13:42.504Z,14.56
2019-06-08T03:16:13.085Z,14.46
2019-06-08T03:18:44.144Z,14.49
2019-06-08T03:21:14.703Z,14.50
2019-06-08T03:23:46.950Z,14.46
2019-06-08T03:26:16.799Z,14.45
2019-06-08T03:28:49.707Z,14.43
2019-06-08T03:31:19.903Z,14.38
2019-06-08T03:33:55.892Z,14.31
2019-06-08T03:36:22.339Z,14.15
2019-06-08T03:38:52.557Z,14.26
2019-06-08T03:41:22.776Z,14.24
2019-06-08T03:43:52.963Z,14.26
2019-06-08T03:46:23.265Z,14.30
2019-06-08T03:48:53.422Z,14.29
2019-06-08T03:51:25.029Z,14.42
2019-06-08T03:53:55.197Z,14.42
2019-06-08T03:56:29.692Z,14.36
2019-06-08T03:59:00.064Z,14.36
2019-06-08T04:01:30.315Z,14.33
2019-06-08T04:04:00.515Z,14.38
2019-06-08T04:06:37.498Z,14.47
2019-06-08T04:09:08.070Z,14.52
2019-06-08T04:11:39.939Z,14.67
2019-06-08T04:14:10.283Z,14.47
2019-06-08T04:16:42.884Z,14.73
2019-06-08T04:19:13.406Z,14.75
2019-06-08T04:21:44.334Z,14.78
2019-06-08T04:24:15.654Z,14.81
2019-06-08T04:26:47.208Z,14.76
2019-06-08T04:29:18.998Z,14.75
2019-06-08T04:31:50.100Z,14.77
2019-06-08T04:34:20.486Z,14.81
2019-06-08T04:36:52.891Z,14.82
2019-06-08T04:39:23.168Z,14.82
2019-06-08T04:41:53.394Z,14.83
2019-06-08T04:44:23.609Z,14.85
2019-06-08T04:46:55.096Z,14.91
2019-06-08T04:49:25.520Z,14.90
2019-06-08T04:51:55.993Z,14.97
2019-06-08T04:54:26.265Z,14.98
2019-06-08T04:56:57.918Z,15.06
2019-06-08T04:59:33.284Z,14.94
2019-06-08T05:02:03.493Z,14.98
2019-06-08T05:04:35.737Z,14.82
2019-06-08T05:07:08.690Z,14.97
2019-06-08T05:09:39.187Z,15.06
2019-06-08T05:12:15.740Z,15.17
2019-06-08T05:14:49.297Z,15.17
2019-06-08T05:17:22.177Z,15.28
2019-06-08T05:19:54.710Z,15.35
2019-06-08T05:22:25.154Z,15.43
2019-06-08T05:24:55.540Z,15.38
2019-06-08T05:27:30.019Z,15.43
2019-06-08T05:30:08.473Z,15.42
2019-06-08T05:32:35.322Z,15.49
2019-06-08T05:35:06.409Z,15.40
2019-06-08T05:37:39.531Z,15.45
2019-06-08T05:40:11.091Z,15.51
2019-06-08T05:42:45.734Z,15.35
2019-06-08T05:45:16.596Z,15.43
2019-06-08T05:47:47.945Z,15.33
2019-06-08T05:50:18.523Z,15.21
2019-06-08T05:52:55.154Z,15.13
2019-06-08T05:55:30.961Z,15.11
2019-06-08T05:58:02.515Z,15.04
2019-06-08T06:00:32.743Z,14.98
2019-06-08T06:03:02.989Z,15.04
2019-06-08T06:05:35.225Z,15.06
2019-06-08T06:08:18.026Z,15.07
2019-06-08T06:10:40.708Z,15.15
2019-06-08T06:13:10.001Z,15.21
2019-06-08T06:15:43.003Z,15.25
2019-06-08T06:18:16.911Z,15.33
2019-06-08T06:20:49.315Z,15.33
2019-06-08T06:23:19.794Z,15.40
2019-06-08T06:25:50.109Z,15.38
2019-06-08T06:28:23.309Z,15.43
2019-06-08T06:30:53.676Z,15.45
2019-06-08T06:33:24.162Z,15.46
2019-06-08T06:35:56.859Z,15.52
2019-06-08T06:38:27.323Z,15.63
2019-06-08T06:40:57.618Z,15.61
2019-06-08T06:43:27.761Z,15.63
2019-06-08T06:45:58.013Z,15.68
2019-06-08T06:48:28.304Z,15.73
2019-06-08T06:50:58.340Z,15.75
2019-06-08T06:53:28.517Z,15.84
2019-06-08T06:56:00.386Z,15.88
2019-06-08T06:58:32.391Z,15.96
2019-06-08T07:01:03.987Z,16.08
2019-06-08T07:03:34.404Z,16.19
2019-06-08T07:06:07.186Z,16.22
2019-06-08T07:08:37.491Z,16.28
2019-06-08T07:11:07.736Z,16.39
2019-06-08T07:13:38.088Z,16.52
2019-06-08T07:16:18.553Z,16.61
2019-06-08T07:18:46.170Z,16.56
2019-06-08T07:21:16.871Z,16.78
2019-06-08T07:23:49.137Z,16.81
2019-06-08T07:26:19.280Z,16.83
2019-06-08T07:28:53.618Z,17.12
2019-06-08T07:31:25.962Z,17.27
2019-06-08T07:33:57.339Z,17.17
2019-06-08T07:36:28.146Z,17.07
2019-06-08T07:39:01.507Z,17.06
2019-06-08T07:41:33.477Z,17.28
2019-06-08T07:44:05.991Z,17.52
2019-06-08T07:46:36.466Z,17.70
2019-06-08T07:49:07.048Z,17.92
2019-06-08T07:51:38.565Z,17.90
2019-06-08T07:54:08.855Z,17.83
2019-06-08T07:56:39.253Z,17.56
2019-06-08T07:59:09.621Z,17.48
2019-06-08T08:01:39.894Z,17.65
2019-06-08T08:04:10.195Z,17.82
2019-06-08T08:06:40.655Z,17.94
2019-06-08T08:09:10.814Z,17.98
2019-06-08T08:11:42.572Z,18.05
2019-06-08T08:14:12.922Z,17.88
2019-06-08T08:16:44.996Z,17.98
2019-06-08T08:19:15.450Z,18.12
2019-06-08T08:21:48.285Z,18.23
2019-06-08T08:24:17.839Z,18.12
2019-06-08T08:26:49.794Z,17.95
2019-06-08T08:29:20.484Z,17.77
2019-06-08T08:31:51.856Z,17.77
2019-06-08T08:34:22.294Z,17.88
2019-06-08T08:36:53.939Z,18.13
2019-06-08T08:39:24.346Z,18.22
2019-06-08T08:42:02.216Z,18.28
2019-06-08T08:44:28.439Z,18.33
2019-06-08T08:47:01.284Z,18.40
2019-06-08T08:49:31.340Z,18.46
2019-06-08T08:52:01.822Z,18.69
2019-06-08T08:54:33.821Z,18.95
2019-06-08T08:57:08.411Z,18.91
2019-06-08T08:59:38.514Z,18.88
2019-06-08T09:02:13.172Z,19.49
2019-06-08T09:04:47.727Z,19.76
2019-06-08T09:07:18.481Z,19.40
2019-06-08T09:09:48.826Z,19.45
2019-06-08T09:12:20.227Z,19.42
2019-06-08T09:14:51.906Z,19.52
2019-06-08T09:17:22.245Z,19.80
2019-06-08T09:19:58.814Z,20.02
2019-06-08T09:22:31.229Z,20.09
2019-06-08T09:25:04.712Z,20.40
2019-06-08T09:27:38.286Z,20.41
2019-06-08T09:30:08.907Z,20.57
2019-06-08T09:32:40.479Z,20.18
2019-06-08T09:35:10.818Z,19.94
2019-06-08T09:37:41.128Z,19.67
2019-06-08T09:40:12.150Z,19.47
2019-06-08T09:42:42.599Z,19.50
2019-06-08T09:45:13.416Z,19.80
2019-06-08T09:47:44.153Z,19.81
2019-06-08T09:50:17.779Z,19.73
2019-06-08T09:52:47.878Z,20.13
2019-06-08T09:55:18.384Z,20.23
2019-06-08T09:57:48.689Z,20.37
2019-06-08T10:00:28.332Z,20.53
2019-06-08T10:02:54.689Z,20.57
2019-06-08T10:05:27.719Z,20.68
2019-06-08T10:08:02.824Z,20.91
2019-06-08T10:10:33.276Z,20.74
2019-06-08T10:13:05.388Z,20.73
2019-06-08T10:15:38.733Z,20.66
2019-06-08T10:18:11.605Z,20.50
2019-06-08T10:20:48.010Z,20.58
2019-06-08T10:23:30.880Z,20.25
2019-06-08T10:25:54.807Z,20.33
2019-06-08T10:28:25.156Z,20.61
2019-06-08T10:30:58.271Z,20.39
2019-06-08T10:33:28.205Z,20.16
2019-06-08T10:36:01.590Z,20.45
2019-06-08T10:38:30.592Z,20.39
2019-06-08T10:41:17.091Z,20.27
2019-06-08T10:43:38.690Z,20.33
2019-06-08T10:46:16.584Z,20.74
2019-06-08T10:48:42.978Z,20.78
2019-06-08T10:51:13.322Z,20.82
2019-06-08T10:53:49.465Z,20.91
2019-06-08T10:56:18.814Z,20.84
2019-06-08T10:58:50.967Z,20.79
2019-06-08T11:01:23.231Z,21.03
2019-06-08T11:03:53.162Z,21.27
2019-06-08T11:06:24.573Z,20.92
2019-06-08T11:08:58.568Z,21.07
2019-06-08T11:11:29.756Z,20.96
2019-06-08T11:14:02.652Z,21.09
2019-06-08T11:16:32.888Z,21.45
2019-06-08T11:19:04.727Z,21.39
2019-06-08T11:21:38.375Z,20.84
2019-06-08T11:24:21.528Z,21.24
2019-06-08T11:26:40.539Z,21.37
2019-06-08T11:29:13.838Z,21.34
2019-06-08T11:31:43.749Z,21.28
2019-06-08T11:34:14.504Z,20.94
2019-06-08T11:36:44.731Z,20.49
2019-06-08T11:39:15.508Z,20.13
2019-06-08T11:41:48.376Z,20.09
2019-06-08T11:44:18.315Z,20.45
2019-06-08T11:46:48.939Z,20.76
2019-06-08T11:49:19.172Z,20.90
2019-06-08T11:51:51.724Z,20.86
2019-06-08T11:54:34.475Z,20.75
2019-06-08T11:56:57.557Z,20.89
2019-06-08T11:59:30.669Z,20.67
2019-06-08T12:02:03.452Z,20.75
2019-06-08T12:04:34.869Z,21.15
2019-06-08T12:07:06.375Z,21.37
2019-06-08T12:09:39.395Z,21.72
2019-06-08T12:12:17.183Z,21.41
2019-06-08T12:14:41.628Z,21.42
2019-06-08T12:17:16.851Z,21.67
2019-06-08T12:19:47.619Z,21.64
2019-06-08T12:22:21.778Z,21.58
2019-06-08T12:24:51.117Z,21.46
2019-06-08T12:27:29.858Z,21.28
2019-06-08T12:29:58.706Z,21.50
2019-06-08T12:32:28.731Z,21.87
2019-06-08T12:35:01.193Z,22.07
2019-06-08T12:37:34.341Z,21.92
2019-06-08T12:40:09.365Z,21.73
2019-06-08T12:42:40.340Z,21.88
2019-06-08T12:45:11.208Z,21.83
2019-06-08T12:47:42.382Z,21.58
2019-06-08T12:50:15.021Z,21.18
2019-06-08T12:52:48.213Z,21.38
2019-06-08T12:55:24.748Z,21.15
2019-06-08T12:57:53.464Z,21.44
2019-06-08T13:00:24.967Z,21.66
2019-06-08T13:02:55.218Z,21.93
2019-06-08T13:05:27.592Z,22.09
2019-06-08T13:07:59.035Z,21.83
2019-06-08T13:10:29.276Z,21.78
2019-06-08T13:12:59.516Z,21.88
2019-06-08T13:15:30.928Z,21.88
2019-06-08T13:18:01.601Z,21.72
2019-06-08T13:20:33.178Z,21.79
2019-06-08T13:23:03.448Z,21.54
2019-06-08T13:25:40.951Z,21.37
2019-06-08T13:28:13.120Z,21.44
2019-06-08T13:30:40.060Z,21.32
2019-06-08T13:33:11.683Z,21.31
2019-06-08T13:35:42.272Z,21.24
2019-06-08T13:38:12.679Z,21.28
2019-06-08T13:40:49.076Z,21.09
2019-06-08T13:43:21.204Z,21.31
2019-06-08T13:45:54.302Z,21.43
2019-06-08T13:48:30.307Z,21.54
2019-06-08T13:51:00.668Z,21.17
2019-06-08T13:53:31.805Z,21.19
2019-06-08T13:56:02.236Z,20.97
2019-06-08T13:58:33.503Z,20.86
2019-06-08T14:01:04.053Z,20.75
2019-06-08T14:03:37.369Z,20.74
2019-06-08T14:06:07.824Z,20.81
2019-06-08T14:08:38.746Z,20.81
2019-06-08T14:11:09.258Z,20.79
2019-06-08T14:13:41.275Z,21.10
2019-06-08T14:16:11.774Z,21.24
2019-06-08T14:18:42.043Z,21.09
2019-06-08T14:21:14.744Z,21.21
2019-06-08T14:23:48.464Z,21.28
2019-06-08T14:26:20.177Z,21.65
2019-06-08T14:28:50.681Z,21.51
2019-06-08T14:31:22.339Z,21.77
2019-06-08T14:33:52.949Z,21.87
2019-06-08T14:36:24.374Z,21.87
2019-06-08T14:38:55.443Z,22.01
2019-06-08T14:41:29.806Z,22.27
2019-06-08T14:44:02.811Z,22.44
2019-06-08T14:46:33.116Z,22.59
2019-06-08T14:49:03.334Z,23.14
2019-06-08T14:51:52.590Z,22.85
2019-06-08T14:54:26.609Z,22.40
2019-06-08T14:56:57.817Z,22.59
2019-06-08T14:59:30.412Z,22.94
2019-06-08T15:02:01.130Z,23.95
2019-06-08T15:04:35.941Z,24.15
2019-06-08T15:07:03.795Z,24.64
2019-06-08T15:09:37.544Z,24.93
2019-06-08T15:12:09.406Z,25.35
2019-06-08T15:14:39.314Z,25.71
2019-06-08T15:17:09.635Z,25.98
2019-06-08T15:19:39.809Z,25.77
2019-06-08T15:22:11.376Z,25.76
2019-06-08T15:24:42.037Z,25.06
2019-06-08T15:27:12.258Z,24.54
2019-06-08T15:29:42.561Z,24.89
2019-06-08T15:32:14.731Z,25.30
2019-06-08T15:34:44.996Z,26.36
2019-06-08T15:37:15.257Z,26.90
2019-06-08T15:39:51.156Z,26.91
2019-06-08T15:42:18.060Z,26.75
2019-06-08T15:44:48.419Z,26.53
2019-06-08T15:47:22.199Z,26.08
2019-06-08T15:49:54.830Z,26.57
2019-06-08T15:52:26.414Z,26.52
2019-06-08T15:54:59.022Z,26.77
2019-06-08T15:57:31.051Z,27.55
2019-06-08T16:00:01.186Z,26.21
2019-06-08T16:02:33.931Z,25.33
2019-06-08T16:05:06.932Z,26.25
2019-06-08T16:07:37.168Z,26.97
2019-06-08T16:10:08.191Z,28.34
2019-06-08T16:12:39.431Z,28.97
2019-06-08T16:15:10.761Z,28.07
2019-06-08T16:17:40.985Z,27.00
2019-06-08T16:20:11.708Z,26.94
2019-06-08T16:22:42.002Z,27.19
2019-06-08T16:25:13.400Z,28.26
2019-06-08T16:27:43.603Z,27.86
2019-06-08T16:30:14.050Z,26.55
2019-06-08T16:32:46.348Z,25.67
2019-06-08T16:35:16.560Z,24.79
2019-06-08T16:37:46.891Z,25.86
2019-06-08T16:40:17.138Z,27.08
2019-06-08T16:42:47.884Z,27.61
2019-06-08T16:45:18.377Z,28.10
2019-06-08T16:47:48.537Z,28.00
2019-06-08T16:50:24.477Z,27.99
2019-06-08T16:52:50.673Z,28.23
2019-06-08T16:55:21.289Z,27.76
2019-06-08T16:57:51.685Z,28.01
2019-06-08T17:00:34.751Z,28.40
2019-06-08T17:02:55.581Z,29.55
2019-06-08T17:05:26.225Z,29.45
2019-06-08T17:07:56.837Z,29.10
2019-06-08T17:10:27.474Z,28.63
2019-06-08T17:12:57.963Z,29.04
2019-06-08T17:15:28.388Z,28.66
2019-06-08T17:17:58.855Z,29.38
2019-06-08T17:20:32.110Z,29.60
2019-06-08T17:23:02.641Z,29.74
2019-06-08T17:25:34.414Z,29.53
2019-06-08T17:28:05.784Z,28.61
2019-06-08T17:30:37.573Z,28.61
2019-06-08T17:33:11.005Z,27.20
2019-06-08T17:35:42.360Z,26.77
2019-06-08T17:38:13.950Z,26.11
2019-06-08T17:40:46.553Z,25.72
2019-06-08T17:43:16.919Z,24.82
2019-06-08T17:45:47.320Z,24.35
2019-06-08T17:48:17.679Z,24.21
2019-06-08T17:50:48.309Z,23.75
2019-06-08T17:53:18.860Z,23.72
2019-06-08T17:55:49.305Z,23.70
2019-06-08T17:58:21.594Z,23.80
2019-06-08T18:00:51.858Z,23.86
2019-06-08T18:03:23.978Z,23.33
2019-06-08T18:05:54.593Z,23.26
2019-06-08T18:08:25.969Z,23.36
2019-06-08T18:10:57.690Z,22.87
2019-06-08T18:13:28.122Z,22.61
2019-06-08T18:15:59.130Z,22.48
2019-06-08T18:18:29.730Z,21.99
2019-06-08T18:21:00.277Z,21.73
2019-06-08T18:23:30.752Z,21.50
2019-06-08T18:26:01.285Z,21.33
2019-06-08T18:28:31.720Z,21.32
2019-06-08T18:31:02.186Z,20.37
2019-06-08T18:33:32.620Z,19.83
2019-06-08T18:36:03.245Z,19.71
2019-06-08T18:38:34.893Z,19.44
2019-06-08T18:41:05.562Z,19.49
2019-06-08T18:43:39.601Z,19.46
2019-06-08T18:46:08.944Z,19.39
2019-06-08T18:48:41.720Z,19.47
2019-06-08T18:51:12.977Z,19.45
2019-06-08T18:54:03.500Z,19.29
2019-06-08T18:56:17.786Z,19.25
2019-06-08T18:58:51.540Z,19.30
2019-06-08T19:01:22.828Z,19.23
2019-06-08T19:03:54.376Z,19.07
2019-06-08T19:06:24.857Z,19.17
2019-06-08T19:08:57.922Z,19.32
2019-06-08T19:11:28.698Z,19.03
2019-06-08T19:13:59.243Z,18.83
2019-06-08T19:16:29.675Z,18.83
2019-06-08T19:19:00.031Z,18.92
2019-06-08T19:21:30.479Z,18.96
2019-06-08T19:24:00.854Z,18.88
2019-06-08T19:26:31.194Z,18.71
2019-06-08T19:29:01.639Z,18.78
2019-06-08T19:31:31.833Z,18.59
2019-06-08T19:34:02.188Z,18.58
2019-06-08T19:36:32.748Z,18.43
2019-06-08T19:39:03.177Z,18.10
2019-06-08T19:41:34.398Z,18.17
2019-06-08T19:44:07.420Z,18.15
2019-06-08T19:46:42.367Z,18.15
2019-06-08T19:49:11.475Z,18.23
2019-06-08T19:51:42.936Z,17.97
2019-06-08T19:54:18.271Z,17.94
2019-06-08T19:56:53.132Z,17.86
2019-06-08T19:59:20.554Z,17.92
2019-06-08T20:01:55.218Z,17.95
2019-06-08T20:04:23.078Z,17.99
2019-06-08T20:06:53.269Z,17.96
2019-06-08T20:09:23.572Z,18.07
2019-06-08T20:11:56.843Z,18.10
2019-06-08T20:14:28.237Z,18.04
2019-06-08T20:16:58.582Z,17.82
2019-06-08T20:19:28.960Z,17.93
2019-06-08T20:21:59.348Z,17.79
2019-06-08T20:24:32.362Z,17.85
2019-06-08T20:27:02.567Z,17.60
2019-06-08T20:29:33.174Z,17.56
2019-06-08T20:32:03.498Z,17.62
2019-06-08T20:34:34.829Z,17.66
2019-06-08T20:37:05.171Z,17.74
2019-06-08T20:39:56.016Z,17.73
2019-06-08T20:42:12.121Z,17.65
2019-06-08T20:44:42.615Z,17.60
2019-06-08T20:47:12.830Z,17.59
2019-06-08T20:49:44.242Z,17.49
2019-06-08T20:52:14.445Z,17.04
2019-06-08T20:54:47.743Z,17.11
2019-06-08T20:57:17.673Z,17.18
2019-06-08T20:59:50.704Z,16.96
2019-06-08T21:02:24.799Z,16.94
2019-06-08T21:04:56.240Z,16.90
2019-06-08T21:07:28.123Z,16.91
2019-06-08T21:10:04.193Z,16.84
2019-06-08T21:12:34.392Z,16.79
2019-06-08T21:15:06.944Z,16.75
2019-06-08T21:17:38.449Z,16.69
2019-06-08T21:20:08.809Z,16.59
2019-06-08T21:22:40.088Z,16.48
2019-06-08T21:25:10.332Z,16.41
2019-06-08T21:27:42.132Z,16.41
2019-06-08T21:30:21.578Z,16.40
2019-06-08T21:32:47.632Z,16.33
2019-06-08T21:35:23.439Z,16.22
2019-06-08T21:37:58.735Z,16.27
2019-06-08T21:40:28.176Z,16.16
2019-06-08T21:43:01.111Z,16.11
2019-06-08T21:45:30.475Z,15.69
2019-06-08T21:48:00.709Z,15.93
2019-06-08T21:50:32.182Z,15.96
2019-06-08T21:53:02.436Z,15.91
2019-06-08T21:55:32.900Z,15.93
2019-06-08T21:58:03.232Z,15.90
2019-06-08T22:00:40.525Z,15.89
2019-06-08T22:03:08.188Z,15.81
2019-06-08T22:05:39.463Z,15.78
2019-06-08T22:08:09.700Z,15.65
2019-06-08T22:10:40.303Z,15.66
2019-06-08T22:13:12.431Z,15.61
2019-06-08T22:15:42.706Z,15.57
2019-06-08T22:18:13.102Z,15.57
2019-06-08T22:20:43.254Z,15.46
2019-06-08T22:23:14.672Z,15.40
2019-06-08T22:25:47.615Z,15.25
2019-06-08T22:28:17.767Z,15.33
2019-06-08T22:30:48.431Z,15.35
2019-06-08T22:33:20.351Z,15.25
2019-06-08T22:35:52.593Z,15.32
2019-06-08T22:38:22.614Z,15.28
2019-06-08T22:40:57.637Z,15.26
2019-06-08T22:43:29.106Z,15.23
2019-06-08T22:46:01.511Z,15.23
2019-06-08T22:48:31.395Z,15.16
2019-06-08T22:51:03.208Z,15.12
2019-06-08T22:53:38.187Z,14.83
2019-06-08T22:56:12.343Z,14.96
2019-06-08T22:58:43.844Z,14.89
2019-06-08T23:01:14.212Z,14.99
2019-06-08T23:03:44.385Z,14.95
2019-06-08T23:06:17.418Z,14.86
2019-06-08T23:08:48.126Z,14.85
2019-06-08T23:11:20.047Z,14.86
2019-06-08T23:13:50.350Z,14.80
2019-06-08T23:16:20.709Z,14.84
2019-06-08T23:18:51.051Z,14.59
2019-06-08T23:21:21.354Z,14.78
2019-06-08T23:23:51.672Z,14.83
2019-06-08T23:26:21.880Z,14.83
2019-06-08T23:28:52.066Z,14.69
2019-06-08T23:31:25.661Z,14.68
2019-06-08T23:33:57.216Z,14.57
2019-06-08T23:36:46.762Z,14.57
2019-06-08T23:39:01.098Z,14.56
2019-06-08T23:41:32.500Z,14.58
2019-06-08T23:44:03.532Z,14.49
2019-06-08T23:46:38.139Z,14.47
2019-06-08T23:49:09.132Z,14.27
2019-06-08T23:51:40.487Z,14.41
2019-06-08T23:54:14.932Z,14.40
2019-06-08T23:56:52.739Z,14.33
2019-06-08T23:59:22.925Z,14.37
